Time;durP1;ratioP1;P1;durP2;ratioP2;P2;SDS_P1;SDS_P2;PMS_P1;PMS_P2;Temp;Humidity;BMP_temperature;BMP_pressure;BME280_temperature;BME280_humidity;BME280_pressure;Samples;Min_cycle;Max_cycle;Signal;HPM_P1;HPM_P2
2022/01/08 00:00:14;;;;;;;6.93;2.42;;;5.40;99.90;;;;;;5018878;28;20061;-71
2022/01/08 00:02:43;;;;;;;6.37;2.43;;;5.40;99.90;;;;;;5025353;28;20061;-71
2022/01/08 00:05:13;;;;;;;6.00;2.83;;;5.40;99.90;;;;;;5044373;28;20204;-71
2022/01/08 00:07:41;;;;;;;7.25;2.65;;;5.40;99.90;;;;;;5044881;28;20049;-71
2022/01/08 00:10:10;;;;;;;5.03;2.20;;;5.40;99.90;;;;;;5042796;28;20033;-70
2022/01/08 00:12:39;;;;;;;6.30;2.60;;;5.30;99.90;;;;;;5040512;28;20111;-70
2022/01/08 00:15:09;;;;;;;4.77;2.20;;;5.20;99.90;;;;;;5044535;28;20119;-71
2022/01/08 00:17:38;;;;;;;6.57;2.78;;;5.10;99.90;;;;;;5030046;28;20044;-71
2022/01/08 00:20:08;;;;;;;7.07;3.45;;;5.00;99.90;;;;;;5045279;28;20494;-71
2022/01/08 00:22:37;;;;;;;5.35;3.03;;;5.00;99.90;;;;;;5021316;28;20041;-71
2022/01/08 00:25:07;;;;;;;6.70;2.00;;;5.00;99.90;;;;;;5047963;28;20355;-71
2022/01/08 00:27:37;;;;;;;5.53;2.40;;;5.10;99.90;;;;;;5031662;28;20124;-71
2022/01/08 00:30:06;;;;;;;6.47;3.45;;;5.10;99.90;;;;;;5023353;28;20045;-71
2022/01/08 00:32:34;;;;;;;6.47;3.15;;;5.20;99.90;;;;;;5045315;28;20049;-70
2022/01/08 00:35:05;;;;;;;8.27;3.67;;;5.20;99.90;;;;;;5039533;28;20053;-71
2022/01/08 00:37:34;;;;;;;8.10;3.40;;;5.20;99.90;;;;;;5040292;28;20047;-71
2022/01/08 00:40:03;;;;;;;6.37;3.10;;;5.20;99.90;;;;;;5041589;28;20676;-71
2022/01/08 00:42:31;;;;;;;6.63;3.28;;;5.20;99.90;;;;;;5046338;28;20083;-71
2022/01/08 00:44:59;;;;;;;5.63;2.85;;;5.30;99.90;;;;;;5038603;28;20045;-71
2022/01/08 00:47:28;;;;;;;5.68;2.97;;;5.30;99.90;;;;;;5043846;28;20049;-71
2022/01/08 00:49:58;;;;;;;4.53;2.97;;;5.30;99.90;;;;;;5037991;28;20408;-71
2022/01/08 00:52:29;;;;;;;7.57;3.83;;;5.30;99.90;;;;;;5046373;28;20507;-71
2022/01/08 00:54:58;;;;;;;5.93;2.75;;;5.40;99.90;;;;;;5016228;28;20052;-71
2022/01/08 00:57:26;;;;;;;10.52;3.38;;;5.40;99.90;;;;;;5028671;28;20051;-71
2022/01/08 00:59:55;;;;;;;6.70;2.85;;;5.40;99.90;;;;;;5040241;28;20124;-71
2022/01/08 01:02:24;;;;;;;4.88;2.58;;;5.40;99.90;;;;;;5032807;28;20053;-71
2022/01/08 01:04:52;;;;;;;7.20;2.63;;;5.40;99.90;;;;;;5041313;28;20377;-71
2022/01/08 01:07:21;;;;;;;5.18;2.38;;;5.40;99.90;;;;;;5055096;28;20072;-71
2022/01/08 01:09:51;;;;;;;5.20;3.30;;;5.40;99.90;;;;;;5045917;28;20385;-71
2022/01/08 01:12:20;;;;;;;5.60;3.10;;;5.40;99.90;;;;;;5039138;28;20411;-71
2022/01/08 01:15:09;;;;;;;6.18;2.47;;;5.40;99.90;;;;;;5041112;28;20048;-71
2022/01/08 01:17:38;;;;;;;6.77;2.77;;;5.30;99.90;;;;;;5039976;28;20564;-71
2022/01/08 01:20:09;;;;;;;4.68;2.15;;;5.20;99.90;;;;;;5043193;28;20088;-71
2022/01/08 01:22:46;;;;;;;6.70;2.80;;;5.20;99.90;;;;;;5039907;28;20554;-71
2022/01/08 01:25:22;;;;;;;6.45;2.53;;;5.10;99.90;;;;;;5042537;28;20075;-71
2022/01/08 01:28:04;;;;;;;7.43;2.40;;;5.20;99.90;;;;;;5036987;28;20498;-71
2022/01/08 01:41:48;;;;;;;5.05;2.20;;;5.10;99.90;;;;;;5040794;28;20040;-71
2022/01/08 01:47:02;;;;;;;6.38;2.15;;;5.10;99.90;;;;;;5039586;28;20053;-71
2022/01/08 01:49:32;;;;;;;4.68;2.17;;;5.10;99.90;;;;;;5043986;28;20522;-71
2022/01/08 01:52:01;;;;;;;4.72;2.38;;;5.10;99.90;;;;;;5043950;28;20056;-71
2022/01/08 01:54:31;;;;;;;5.60;3.00;;;5.20;99.90;;;;;;5045561;28;20072;-71
2022/01/08 01:57:02;;;;;;;4.87;1.80;;;5.10;99.90;;;;;;5037670;28;20056;-71
2022/01/08 02:02:49;;;;;;;3.75;2.00;;;5.10;99.90;;;;;;5038351;28;20142;-71
2022/01/08 02:05:45;;;;;;;4.72;2.55;;;5.00;99.90;;;;;;5059601;28;20059;-71
2022/01/08 02:08:14;;;;;;;5.13;2.45;;;5.00;99.90;;;;;;5052413;28;20393;-71
2022/01/08 02:10:43;;;;;;;4.13;2.60;;;5.00;99.90;;;;;;5044540;28;20048;-71
2022/01/08 02:13:22;;;;;;;6.30;2.38;;;5.00;99.90;;;;;;5042430;28;20471;-71
2022/01/08 02:15:53;;;;;;;4.53;1.75;;;5.00;99.90;;;;;;5040818;28;20048;-71
2022/01/08 02:18:47;;;;;;;5.40;2.28;;;5.00;99.90;;;;;;5052984;28;20789;-71
2022/01/08 02:21:17;;;;;;;3.83;2.00;;;5.00;99.90;;;;;;5043413;28;20062;-70
2022/01/08 02:24:11;;;;;;;5.47;2.47;;;5.00;99.90;;;;;;5040519;28;20491;-70
2022/01/08 02:26:40;;;;;;;6.47;2.60;;;4.90;99.90;;;;;;5044680;28;20049;-70
2022/01/08 02:29:12;;;;;;;3.95;1.85;;;4.90;99.90;;;;;;5039701;28;20049;-71
2022/01/08 02:31:41;;;;;;;4.85;2.08;;;4.90;99.90;;;;;;5051199;28;20045;-71
2022/01/08 02:34:09;;;;;;;3.83;1.65;;;4.80;99.90;;;;;;5042455;28;20053;-71
2022/01/08 02:36:42;;;;;;;5.73;1.93;;;4.80;99.90;;;;;;5046112;28;20045;-71
2022/01/08 02:39:12;;;;;;;3.80;2.45;;;4.90;99.90;;;;;;5039592;28;20073;-71
2022/01/08 02:41:40;;;;;;;4.95;2.10;;;4.90;99.90;;;;;;5043438;28;20052;-71
2022/01/08 02:44:09;;;;;;;4.32;2.35;;;4.90;99.90;;;;;;5049328;28;20040;-71
2022/01/08 02:46:39;;;;;;;6.47;2.40;;;4.90;99.90;;;;;;5037660;28;20741;-70
2022/01/08 02:49:09;;;;;;;3.77;1.90;;;4.80;99.90;;;;;;5048069;28;20049;-71
2022/01/08 02:51:39;;;;;;;4.95;1.83;;;4.70;99.90;;;;;;5038853;28;20079;-70
2022/01/08 02:54:10;;;;;;;3.45;2.17;;;4.80;99.90;;;;;;5046407;28;20049;-70
2022/01/08 02:56:39;;;;;;;4.43;2.05;;;4.80;99.90;;;;;;5040115;28;20040;-71
2022/01/08 02:59:07;;;;;;;3.55;1.67;;;4.80;99.90;;;;;;5046309;28;20407;-71
2022/01/08 03:01:37;;;;;;;4.03;1.73;;;4.80;99.90;;;;;;5040385;28;20056;-70
2022/01/08 03:04:07;;;;;;;3.65;1.67;;;4.70;99.90;;;;;;5044885;28;20499;-71
2022/01/08 03:06:42;;;;;;;3.38;1.48;;;4.70;99.90;;;;;;5046545;28;20123;-71
2022/01/08 03:09:11;;;;;;;4.80;1.63;;;4.80;99.90;;;;;;5045660;28;20044;-71
2022/01/08 03:11:44;;;;;;;5.40;1.60;;;4.80;99.90;;;;;;5047458;28;20038;-71
2022/01/08 03:14:13;;;;;;;3.47;1.50;;;4.80;99.90;;;;;;5040935;28;20057;-71
2022/01/08 03:16:41;;;;;;;4.28;1.67;;;4.80;99.90;;;;;;5040516;28;20052;-71
2022/01/08 03:19:11;;;;;;;3.47;1.45;;;4.80;99.90;;;;;;5045847;28;20105;-70
2022/01/08 03:21:45;;;;;;;3.63;1.60;;;4.80;99.90;;;;;;5046289;28;20044;-71
2022/01/08 03:24:17;;;;;;;4.07;1.83;;;4.80;99.90;;;;;;5043059;28;20060;-71
2022/01/08 03:26:46;;;;;;;3.27;1.40;;;4.80;99.90;;;;;;5044660;28;20045;-71
2022/01/08 03:29:15;;;;;;;3.38;1.63;;;4.90;99.90;;;;;;5046468;28;20480;-71
2022/01/08 03:31:43;;;;;;;4.45;2.03;;;4.90;99.90;;;;;;5043621;28;20049;-71
2022/01/08 03:34:12;;;;;;;3.50;1.83;;;4.80;99.90;;;;;;5045125;28;20044;-71
2022/01/08 03:36:42;;;;;;;3.35;1.45;;;4.80;99.90;;;;;;5048194;28;20072;-70
2022/01/08 03:39:11;;;;;;;6.43;2.00;;;4.80;99.90;;;;;;5045134;28;20123;-71
2022/01/08 03:41:39;;;;;;;4.43;2.08;;;4.90;99.90;;;;;;5047412;28;20059;-71
2022/01/08 03:44:09;;;;;;;4.60;1.95;;;4.90;99.90;;;;;;5045937;28;20040;-71
2022/01/08 03:46:37;;;;;;;4.43;1.77;;;4.90;99.90;;;;;;5040226;28;20059;-70
2022/01/08 03:49:23;;;;;;;5.80;1.98;;;4.80;99.90;;;;;;5045415;28;20041;-70
2022/01/08 03:51:55;;;;;;;4.27;1.77;;;4.80;99.90;;;;;;5039766;28;20041;-71
2022/01/08 03:54:24;;;;;;;3.70;1.38;;;4.80;99.90;;;;;;5048961;28;20088;-71
2022/01/08 03:56:52;;;;;;;5.68;2.20;;;4.90;99.90;;;;;;5040233;28;20048;-71
2022/01/08 03:59:21;;;;;;;3.97;2.20;;;4.90;99.90;;;;;;5046734;28;20043;-71
2022/01/08 04:01:49;;;;;;;3.65;1.73;;;4.90;99.90;;;;;;5034317;28;20468;-71
2022/01/08 04:04:18;;;;;;;5.07;1.90;;;5.00;99.90;;;;;;5030456;28;20423;-72
2022/01/08 04:06:47;;;;;;;4.07;2.20;;;5.10;99.90;;;;;;5038928;28;20126;-71
2022/01/08 04:09:17;;;;;;;3.92;1.60;;;5.10;99.90;;;;;;5034890;28;20148;-71
2022/01/08 04:11:46;;;;;;;6.15;2.22;;;5.10;99.90;;;;;;5047288;28;20088;-71
2022/01/08 04:14:16;;;;;;;4.78;1.90;;;5.10;99.90;;;;;;5044517;28;20572;-71
2022/01/08 04:16:48;;;;;;;3.83;2.03;;;5.10;99.90;;;;;;5044501;28;20056;-71
2022/01/08 04:19:19;;;;;;;4.18;1.75;;;5.20;99.90;;;;;;5043140;28;20053;-71
2022/01/08 04:22:07;;;;;;;4.15;1.70;;;5.20;99.90;;;;;;5045935;28;20127;-71
2022/01/08 04:24:37;;;;;;;4.13;1.73;;;5.30;99.90;;;;;;5040276;28;20058;-71
2022/01/08 04:27:07;;;;;;;4.63;1.92;;;4.80;99.90;;;;;;5048116;28;20041;-71
2022/01/08 04:29:35;;;;;;;4.60;1.90;;;4.80;99.90;;;;;;5043186;28;20044;-70
2022/01/08 04:32:05;;;;;;;4.18;1.70;;;4.50;99.90;;;;;;5039935;28;20045;-71
2022/01/08 04:34:35;;;;;;;4.47;2.03;;;4.60;99.90;;;;;;5044002;28;20045;-71
2022/01/08 04:37:04;;;;;;;3.30;1.73;;;4.60;99.90;;;;;;5043764;28;20091;-70
2022/01/08 04:39:33;;;;;;;3.90;1.83;;;4.50;99.90;;;;;;5044698;28;20044;-70
2022/01/08 04:42:03;;;;;;;7.17;2.37;;;4.70;99.90;;;;;;5042626;28;20040;-72
2022/01/08 04:44:32;;;;;;;3.70;2.22;;;4.70;99.90;;;;;;5045368;28;20045;-72
2022/01/08 04:47:00;;;;;;;3.42;1.67;;;4.70;99.90;;;;;;5034294;28;20061;-72
2022/01/08 04:49:29;;;;;;;7.18;2.33;;;4.60;99.90;;;;;;5045203;28;20542;-72
2022/01/08 04:51:57;;;;;;;4.75;1.70;;;4.60;99.90;;;;;;5032542;28;20069;-71
2022/01/08 04:54:26;;;;;;;3.27;1.63;;;4.60;99.90;;;;;;5044818;28;20154;-73
2022/01/08 04:56:54;;;;;;;3.55;1.70;;;4.30;99.90;;;;;;5042322;28;20056;-72
2022/01/08 04:59:24;;;;;;;3.10;1.40;;;3.90;99.90;;;;;;5019035;28;20083;-72
2022/01/08 05:01:53;;;;;;;5.80;1.67;;;3.80;99.90;;;;;;5034615;28;20056;-72
2022/01/08 05:04:22;;;;;;;3.97;1.88;;;3.90;99.90;;;;;;5038493;28;20068;-72
2022/01/08 05:06:51;;;;;;;3.20;1.50;;;4.10;99.90;;;;;;5025488;28;20084;-72
2022/01/08 05:09:21;;;;;;;2.92;1.75;;;4.10;99.90;;;;;;5041536;28;20060;-72
2022/01/08 05:11:49;;;;;;;4.03;1.13;;;4.20;99.90;;;;;;5043441;28;20048;-70
2022/01/08 05:14:18;;;;;;;8.90;2.50;;;4.30;99.90;;;;;;5045719;28;20480;-71
2022/01/08 05:16:50;;;;;;;3.80;1.90;;;4.40;99.90;;;;;;5041258;28;20266;-71
2022/01/08 05:19:24;;;;;;;6.17;1.63;;;4.60;99.90;;;;;;5043784;28;20084;-70
2022/01/08 05:21:57;;;;;;;4.20;1.70;;;4.60;99.90;;;;;;5049336;28;20068;-71
2022/01/08 05:24:27;;;;;;;3.58;1.70;;;4.70;99.90;;;;;;5042950;28;20049;-71
2022/01/08 05:26:55;;;;;;;7.47;1.48;;;4.70;99.90;;;;;;5047112;28;20053;-71
2022/01/08 05:29:23;;;;;;;4.50;1.85;;;4.70;99.90;;;;;;5046390;28;20057;-72
2022/01/08 05:34:49;;;;;;;3.90;1.80;;;4.80;99.90;;;;;;5049298;28;20048;-75
2022/01/08 05:37:18;;;;;;;3.88;1.42;;;4.80;99.90;;;;;;5046014;28;20129;-71
2022/01/08 05:39:48;;;;;;;2.72;1.45;;;4.80;99.90;;;;;;5049180;28;20492;-71
2022/01/08 05:42:17;;;;;;;2.78;1.13;;;4.90;99.90;;;;;;5046052;28;20772;-71
2022/01/08 05:44:46;;;;;;;3.53;1.43;;;4.90;99.90;;;;;;5044329;28;20037;-71
2022/01/08 05:47:17;;;;;;;5.57;1.58;;;4.90;99.90;;;;;;5036669;28;20067;-71
2022/01/08 05:49:45;;;;;;;3.15;1.20;;;4.70;99.90;;;;;;5044426;28;20048;-72
2022/01/08 05:52:39;;;;;;;3.03;1.60;;;4.70;99.90;;;;;;5036791;28;20044;-71
2022/01/08 05:55:11;;;;;;;3.28;1.10;;;4.80;99.90;;;;;;5043903;28;20064;-71
2022/01/08 05:57:40;;;;;;;4.70;2.03;;;4.80;99.90;;;;;;5042235;28;20055;-71
2022/01/08 06:00:10;;;;;;;2.90;1.05;;;4.90;99.90;;;;;;5041547;28;20045;-71
2022/01/08 06:02:40;;;;;;;5.13;1.98;;;5.00;99.90;;;;;;5044705;28;20071;-70
2022/01/08 06:05:10;;;;;;;6.15;1.50;;;5.00;99.90;;;;;;5042246;28;20048;-71
2022/01/08 06:07:39;;;;;;;2.30;0.75;;;5.10;99.90;;;;;;5044427;28;20518;-71
2022/01/08 06:10:08;;;;;;;4.57;1.33;;;5.10;99.90;;;;;;5038902;28;20052;-71
2022/01/08 06:12:37;;;;;;;3.28;1.10;;;5.10;99.90;;;;;;5044823;28;20347;-71
2022/01/08 06:15:07;;;;;;;3.28;1.63;;;5.00;99.90;;;;;;5025989;28;20079;-71
2022/01/08 06:17:35;;;;;;;3.42;1.15;;;5.10;99.90;;;;;;5049993;28;20745;-71
2022/01/08 06:20:08;;;;;;;2.22;1.02;;;5.10;99.90;;;;;;5048148;28;20037;-71
2022/01/08 06:22:37;;;;;;;4.20;1.27;;;5.10;99.90;;;;;;5036718;28;20111;-72
2022/01/08 06:25:06;;;;;;;2.60;1.15;;;5.20;99.90;;;;;;5042692;28;20032;-72
2022/01/08 06:27:35;;;;;;;2.40;0.95;;;5.20;99.90;;;;;;5048030;28;20041;-72
2022/01/08 06:30:04;;;;;;;2.63;1.10;;;5.20;99.90;;;;;;5043275;28;20051;-72
2022/01/08 06:32:33;;;;;;;2.70;1.10;;;5.30;99.90;;;;;;5051561;28;20064;-71
2022/01/08 06:35:03;;;;;;;3.23;0.73;;;5.30;99.90;;;;;;5051562;28;20041;-71
2022/01/08 06:37:32;;;;;;;4.65;1.00;;;5.20;99.90;;;;;;5047468;28;20051;-71
2022/01/08 06:40:00;;;;;;;2.88;1.35;;;5.30;99.90;;;;;;5049736;28;20115;-71
2022/01/08 06:42:28;;;;;;;8.00;1.17;;;5.30;99.90;;;;;;5048417;28;20388;-71
2022/01/08 06:44:57;;;;;;;3.60;1.40;;;5.30;99.90;;;;;;5049125;28;20037;-72
2022/01/08 06:47:26;;;;;;;3.63;0.90;;;5.30;99.90;;;;;;5040926;28;20049;-71
2022/01/08 06:49:57;;;;;;;2.55;0.90;;;5.50;99.90;;;;;;5050941;28;20140;-71
2022/01/08 06:52:25;;;;;;;3.03;1.13;;;5.10;99.90;;;;;;5043764;28;20045;-71
2022/01/08 06:54:55;;;;;;;2.50;0.75;;;5.10;99.90;;;;;;5026424;28;20067;-71
2022/01/08 06:57:23;;;;;;;3.35;1.20;;;5.20;99.90;;;;;;5043836;28;20195;-73
2022/01/08 06:59:52;;;;;;;3.50;0.90;;;5.10;99.90;;;;;;5043894;28;20036;-73
2022/01/08 07:02:21;;;;;;;2.38;0.73;;;4.90;99.90;;;;;;5029423;28;20056;-72
2022/01/08 07:04:49;;;;;;;2.88;1.05;;;5.00;99.90;;;;;;5047079;28;20076;-72
2022/01/08 07:07:18;;;;;;;2.70;0.90;;;5.20;99.90;;;;;;5053375;28;20041;-72
2022/01/08 07:09:46;;;;;;;2.88;1.05;;;5.30;99.90;;;;;;5048109;28;20052;-72
2022/01/08 07:12:17;;;;;;;3.70;1.13;;;5.20;99.90;;;;;;5035318;28;20057;-72
2022/01/08 07:14:46;;;;;;;3.92;1.50;;;5.20;99.90;;;;;;5057942;28;20037;-72
2022/01/08 07:17:15;;;;;;;3.30;1.10;;;5.30;99.90;;;;;;5025142;28;20065;-72
2022/01/08 07:19:43;;;;;;;3.03;1.23;;;5.40;99.90;;;;;;5050138;28;20068;-72
2022/01/08 07:22:12;;;;;;;2.30;1.08;;;5.30;99.90;;;;;;5048887;28;20119;-72
2022/01/08 07:25:07;;;;;;;2.00;0.70;;;5.30;99.90;;;;;;5043302;28;20048;-72
2022/01/08 07:27:37;;;;;;;2.80;1.00;;;5.40;99.90;;;;;;5047084;28;20047;-72
2022/01/08 07:30:07;;;;;;;2.75;1.17;;;5.40;99.90;;;;;;5043601;28;20052;-72
2022/01/08 07:32:40;;;;;;;4.35;1.35;;;5.40;99.90;;;;;;5042293;28;20045;-66
2022/01/08 07:35:11;;;;;;;4.07;1.33;;;5.40;99.90;;;;;;5049659;28;20122;-67
2022/01/08 07:37:39;;;;;;;2.70;1.03;;;5.30;99.90;;;;;;5049789;28;20060;-77
2022/01/08 07:40:09;;;;;;;3.05;1.30;;;5.40;99.90;;;;;;5032248;28;20102;-71
2022/01/08 07:42:38;;;;;;;2.97;1.00;;;5.50;99.90;;;;;;5052050;28;20056;-72
2022/01/08 07:45:07;;;;;;;2.58;1.05;;;5.40;99.90;;;;;;5043829;28;20045;-71
2022/01/08 07:47:36;;;;;;;2.08;0.63;;;5.30;99.90;;;;;;5027975;28;20415;-74
2022/01/08 07:50:06;;;;;;;4.63;1.63;;;5.20;99.90;;;;;;5042738;28;20479;-66
2022/01/08 07:52:35;;;;;;;2.78;1.10;;;5.30;99.90;;;;;;5040504;28;20044;-69
2022/01/08 07:55:05;;;;;;;2.50;0.90;;;5.40;99.90;;;;;;5042072;28;20037;-71
2022/01/08 07:57:34;;;;;;;3.05;1.10;;;5.30;99.90;;;;;;5031984;28;20045;-71
2022/01/08 08:00:05;;;;;;;2.83;1.38;;;5.30;99.90;;;;;;5046742;28;20041;-70
2022/01/08 08:02:38;;;;;;;5.17;1.40;;;5.40;99.90;;;;;;5045677;28;20357;-70
2022/01/08 08:05:09;;;;;;;3.53;1.35;;;5.30;99.90;;;;;;5037159;28;20057;-75
2022/01/08 08:07:39;;;;;;;2.22;1.27;;;5.20;99.90;;;;;;5047301;28;20045;-70
2022/01/08 08:10:11;;;;;;;4.10;1.33;;;5.30;99.90;;;;;;5025853;28;20044;-69
2022/01/08 08:12:40;;;;;;;4.18;1.23;;;5.40;99.90;;;;;;5046246;28;20380;-70
2022/01/08 08:15:13;;;;;;;2.13;0.73;;;5.50;99.90;;;;;;5035108;28;20055;-70
2022/01/08 08:17:42;;;;;;;3.88;1.08;;;5.50;99.90;;;;;;5028756;28;20049;-70
2022/01/08 08:20:12;;;;;;;2.80;1.00;;;5.50;99.90;;;;;;5031284;28;20553;-74
2022/01/08 08:22:42;;;;;;;2.70;0.85;;;5.40;99.90;;;;;;5045664;28;20033;-70
2022/01/08 08:25:12;;;;;;;2.40;0.90;;;5.40;99.90;;;;;;5049612;28;20056;-71
2022/01/08 08:27:41;;;;;;;3.30;1.00;;;5.40;99.90;;;;;;5042397;28;20121;-71
2022/01/08 08:30:12;;;;;;;2.22;0.93;;;5.30;99.90;;;;;;5039058;28;20052;-72
2022/01/08 08:32:40;;;;;;;1.92;0.55;;;5.30;99.90;;;;;;5033484;28;20068;-71
2022/01/08 08:35:11;;;;;;;2.20;0.77;;;5.30;99.90;;;;;;5042865;28;20533;-71
2022/01/08 08:37:40;;;;;;;3.20;1.13;;;5.30;99.90;;;;;;5049800;28;20099;-70
2022/01/08 08:40:11;;;;;;;2.90;1.17;;;5.30;99.90;;;;;;5042547;28;20037;-72
2022/01/08 08:43:05;;;;;;;1.73;0.77;;;5.20;99.90;;;;;;5049550;28;20094;-72
2022/01/08 08:45:35;;;;;;;2.40;1.33;;;5.20;99.90;;;;;;5044517;28;20037;-72
2022/01/08 08:48:04;;;;;;;3.95;1.23;;;5.10;99.90;;;;;;5045437;28;20041;-76
2022/01/08 08:50:33;;;;;;;2.72;1.40;;;5.10;99.90;;;;;;5046490;28;20052;-78
2022/01/08 08:53:02;;;;;;;4.13;1.40;;;5.10;99.90;;;;;;5038787;28;20120;-72
2022/01/08 08:55:30;;;;;;;2.58;1.02;;;5.10;99.90;;;;;;5054122;28;20107;-75
2022/01/08 08:58:00;;;;;;;2.15;0.98;;;5.10;99.90;;;;;;5048923;28;20048;-78
2022/01/08 09:00:29;;;;;;;1.90;0.70;;;5.00;99.90;;;;;;5050550;28;20037;-68
2022/01/08 09:02:59;;;;;;;2.88;1.15;;;5.00;99.90;;;;;;5050763;28;20037;-67
2022/01/08 09:05:28;;;;;;;1.73;0.90;;;5.00;99.90;;;;;;5026477;28;20053;-69
2022/01/08 09:10:50;;;;;;;3.42;1.23;;;5.00;99.90;;;;;;5030469;28;20041;-67
2022/01/08 09:13:20;;;;;;;1.85;0.55;;;5.00;99.90;;;;;;5027771;28;20071;-67
2022/01/08 09:15:49;;;;;;;2.00;0.65;;;4.90;99.90;;;;;;5006933;28;20053;-71
2022/01/08 09:18:44;;;;;;;1.63;0.60;;;4.90;99.90;;;;;;5026885;28;20041;-68
2022/01/08 09:21:37;;;;;;;4.10;0.55;;;5.00;99.90;;;;;;5029235;28;20049;-68
2022/01/08 09:24:06;;;;;;;1.38;0.47;;;4.90;99.90;;;;;;5030795;28;20045;-68
2022/01/08 09:26:35;;;;;;;2.67;0.60;;;4.80;99.90;;;;;;5030095;28;20087;-68
2022/01/08 09:29:04;;;;;;;1.67;0.55;;;4.70;99.90;;;;;;5029791;28;20499;-74
2022/01/08 09:31:34;;;;;;;3.17;0.80;;;4.70;99.90;;;;;;5011759;28;20075;-68
2022/01/08 09:34:04;;;;;;;1.35;0.45;;;4.70;99.90;;;;;;5029368;28;20493;-68
2022/01/08 09:36:33;;;;;;;1.88;0.45;;;4.60;99.90;;;;;;5033440;28;20053;-68
2022/01/08 09:39:01;;;;;;;2.97;0.80;;;4.60;99.90;;;;;;5026539;28;20045;-68
2022/01/08 09:41:29;;;;;;;1.25;0.38;;;4.70;99.90;;;;;;5026121;28;20049;-68
2022/01/08 09:43:57;;;;;;;1.17;0.37;;;4.70;99.90;;;;;;5018528;28;20484;-68
2022/01/08 09:46:26;;;;;;;1.15;0.32;;;4.70;99.90;;;;;;5010400;28;20052;-65
2022/01/08 09:48:54;;;;;;;4.47;0.63;;;4.50;99.90;;;;;;5018523;28;20042;-65
2022/01/08 09:51:26;;;;;;;1.40;0.40;;;4.40;99.90;;;;;;5033815;28;20057;-65
2022/01/08 09:53:55;;;;;;;2.28;0.70;;;4.30;99.90;;;;;;5038123;28;20450;-69
2022/01/08 09:56:25;;;;;;;1.30;0.40;;;4.30;99.90;;;;;;5023831;28;20052;-66
2022/01/08 09:58:55;;;;;;;6.75;1.52;;;4.20;99.90;;;;;;5056597;28;20056;-67
2022/01/08 10:01:54;;;;;;;5.47;0.60;;;4.30;99.90;;;;;;5042826;28;20614;-67
2022/01/08 10:04:27;;;;;;;0.85;0.30;;;4.20;99.90;;;;;;5055186;28;20057;-67
2022/01/08 10:07:19;;;;;;;1.30;0.35;;;4.10;99.90;;;;;;5049372;28;20048;-66
2022/01/08 10:10:12;;;;;;;2.17;0.40;;;4.00;99.90;;;;;;5051578;28;20041;-67
2022/01/08 10:12:45;;;;;;;1.27;0.32;;;3.90;99.90;;;;;;5034765;28;20045;-66
2022/01/08 10:18:05;;;;;;;0.85;0.10;;;4.10;99.90;;;;;;5053760;28;20104;-72
2022/01/08 10:23:32;;;;;;;1.10;0.30;;;4.20;99.90;;;;;;5023832;28;20411;-67
2022/01/08 10:26:05;;;;;;;3.90;0.45;;;4.20;99.90;;;;;;5039811;28;20432;-67
2022/01/08 10:28:36;;;;;;;1.63;0.43;;;4.10;99.90;;;;;;5035269;28;20068;-67
2022/01/08 10:31:11;;;;;;;2.85;0.50;;;4.10;99.90;;;;;;5012664;28;20531;-67
2022/01/08 10:33:40;;;;;;;1.25;0.47;;;4.10;99.90;;;;;;5035172;28;20065;-65
2022/01/08 10:36:10;;;;;;;1.27;0.47;;;4.00;99.90;;;;;;5034926;28;21346;-67
2022/01/08 10:38:43;;;;;;;1.35;0.38;;;4.10;99.90;;;;;;5038655;28;20419;-72
2022/01/08 10:41:15;;;;;;;2.72;0.75;;;4.30;99.90;;;;;;5015358;28;20168;-68
2022/01/08 10:43:46;;;;;;;1.48;0.47;;;4.30;99.90;;;;;;5023878;28;20041;-69
2022/01/08 10:46:18;;;;;;;0.93;0.40;;;4.30;99.90;;;;;;5026092;28;20050;-67
2022/01/08 10:48:49;;;;;;;3.70;0.90;;;4.20;99.90;;;;;;5034403;28;20496;-66
2022/01/08 10:51:21;;;;;;;1.27;0.40;;;4.30;99.90;;;;;;4997177;28;20045;-65
2022/01/08 10:54:04;;;;;;;2.03;0.73;;;4.20;99.90;;;;;;5038378;28;20053;-63
2022/01/08 10:56:36;;;;;;;2.65;0.50;;;4.20;99.90;;;;;;5034692;28;20068;-68
2022/01/08 10:59:12;;;;;;;1.83;0.77;;;4.10;99.90;;;;;;5026108;28;20042;-68
2022/01/08 11:01:47;;;;;;;2.37;1.00;;;4.10;99.90;;;;;;5021348;28;20525;-70
2022/01/08 11:04:17;;;;;;;2.30;1.10;;;4.00;99.90;;;;;;5007717;28;20044;-69
2022/01/08 11:06:55;;;;;;;1.88;0.68;;;4.00;99.90;;;;;;5034245;28;20469;-69
2022/01/08 11:09:27;;;;;;;1.63;0.82;;;4.00;99.90;;;;;;5032143;28;20041;-69
2022/01/08 11:12:26;;;;;;;1.77;0.60;;;4.00;99.90;;;;;;5036601;28;20507;-66
2022/01/08 11:15:22;;;;;;;2.30;1.00;;;4.00;99.90;;;;;;5031557;28;20052;-69
2022/01/08 11:17:55;;;;;;;3.08;1.50;;;4.10;99.90;;;;;;5029067;28;20056;-69
2022/01/08 11:21:08;;;;;;;4.00;0.88;;;4.10;99.90;;;;;;5029666;28;20424;-68
2022/01/08 11:23:38;;;;;;;2.28;1.20;;;4.20;99.90;;;;;;5029222;28;20041;-67
2022/01/08 11:26:11;;;;;;;2.60;1.20;;;4.30;99.90;;;;;;5029602;28;20041;-70
2022/01/08 11:28:45;;;;;;;2.23;0.87;;;4.30;99.90;;;;;;5030394;28;20045;-71
2022/01/08 11:31:16;;;;;;;1.85;0.82;;;4.30;99.90;;;;;;5025421;28;20423;-69
2022/01/08 11:33:49;;;;;;;2.63;1.10;;;4.40;99.90;;;;;;5029842;28;20124;-75
2022/01/08 11:36:20;;;;;;;3.30;1.33;;;4.40;99.90;;;;;;5024294;28;20056;-71
2022/01/08 11:39:09;;;;;;;2.55;1.25;;;4.50;99.90;;;;;;5069209;23;20057;-74
2022/01/08 11:41:41;;;;;;;4.80;1.27;;;4.60;99.90;;;;;;5048347;28;20044;-79
2022/01/08 11:44:46;;;;;;;3.85;1.35;;;4.60;99.90;;;;;;5036537;28;20047;-78
2022/01/08 11:47:23;;;;;;;2.10;1.20;;;4.60;99.90;;;;;;5050632;28;20107;-73
2022/01/08 11:50:00;;;;;;;3.55;1.48;;;4.50;99.90;;;;;;5054941;28;20138;-68
2022/01/08 11:52:29;;;;;;;3.67;1.77;;;4.60;99.90;;;;;;5042344;28;20171;-69
2022/01/08 11:54:58;;;;;;;3.33;1.57;;;4.80;99.90;;;;;;5053289;28;20045;-69
2022/01/08 11:57:29;;;;;;;2.67;1.20;;;4.90;99.90;;;;;;5044646;28;20104;-69
2022/01/08 11:59:59;;;;;;;5.15;1.40;;;4.90;99.90;;;;;;5052436;28;20048;-67
2022/01/08 12:02:38;;;;;;;2.33;1.15;;;4.90;99.90;;;;;;5028752;28;20052;-68
2022/01/08 12:05:09;;;;;;;4.70;1.35;;;4.90;99.90;;;;;;5047925;28;20064;-68
2022/01/08 12:07:45;;;;;;;2.70;1.37;;;4.80;99.90;;;;;;5046946;28;20552;-72
2022/01/08 12:10:20;;;;;;;4.72;1.40;;;4.90;99.90;;;;;;5031536;28;20041;-71
2022/01/08 12:12:54;;;;;;;3.00;1.25;;;4.80;99.90;;;;;;5022934;28;20052;-71
2022/01/08 12:15:46;;;;;;;2.80;1.33;;;4.80;99.90;;;;;;5035098;28;20137;-69
2022/01/08 12:21:36;;;;;;;4.17;1.10;;;5.00;99.90;;;;;;5040441;28;20041;-69
2022/01/08 12:24:33;;;;;;;3.22;1.50;;;4.90;99.90;;;;;;5025895;28;20045;-69
2022/01/08 12:27:53;;;;;;;2.85;1.02;;;4.90;99.90;;;;;;5026307;28;20041;-69
2022/01/08 12:30:38;;;;;;;3.55;1.52;;;4.90;99.90;;;;;;5039078;28;20466;-70
2022/01/08 12:33:19;;;;;;;3.70;1.23;;;5.00;99.90;;;;;;5046627;28;20099;-67
2022/01/08 12:35:54;;;;;;;3.07;1.33;;;5.10;99.90;;;;;;5050231;28;20106;-67
2022/01/08 12:38:32;;;;;;;3.10;1.20;;;5.00;99.90;;;;;;5028845;28;20064;-67
2022/01/08 12:41:19;;;;;;;4.75;1.70;;;5.00;99.90;;;;;;5018707;28;20041;-69
2022/01/08 12:43:48;;;;;;;11.07;1.67;;;5.00;99.90;;;;;;5029954;28;20068;-68
2022/01/08 12:46:22;;;;;;;4.95;2.00;;;5.10;99.90;;;;;;5030168;28;20140;-68
2022/01/08 12:49:14;;;;;;;3.10;1.10;;;5.20;99.90;;;;;;5034165;28;20124;-69
2022/01/08 12:52:07;;;;;;;4.35;1.70;;;5.30;99.90;;;;;;5027126;28;20048;-68
2022/01/08 12:54:36;;;;;;;3.60;1.10;;;5.10;99.90;;;;;;5024515;28;20111;-68
2022/01/08 12:57:06;;;;;;;3.25;1.02;;;5.00;99.90;;;;;;5025423;28;20386;-69
2022/01/08 12:59:37;;;;;;;2.90;1.17;;;4.90;99.90;;;;;;5039107;28;20428;-69
2022/01/08 13:02:09;;;;;;;4.73;1.30;;;5.00;99.90;;;;;;5016959;28;20075;-69
2022/01/08 13:04:40;;;;;;;7.40;1.83;;;4.90;99.90;;;;;;5043343;28;20411;-67
2022/01/08 13:07:09;;;;;;;4.18;1.25;;;5.00;99.90;;;;;;5029739;28;20048;-67
2022/01/08 13:09:38;;;;;;;3.88;1.30;;;5.10;99.90;;;;;;5026941;28;20542;-67
2022/01/08 13:12:31;;;;;;;2.90;1.20;;;5.20;99.90;;;;;;5034318;28;20056;-66
2022/01/08 13:15:03;;;;;;;5.00;1.70;;;5.20;99.90;;;;;;5027603;28;20087;-67
2022/01/08 13:17:33;;;;;;;4.10;1.73;;;5.30;99.90;;;;;;5032193;28;20079;-67
2022/01/08 13:20:06;;;;;;;3.85;1.60;;;5.40;99.90;;;;;;5029855;28;20049;-68
2022/01/08 13:22:35;;;;;;;4.18;1.63;;;5.20;99.90;;;;;;5034274;28;20044;-70
2022/01/08 13:25:11;;;;;;;4.28;1.85;;;5.30;99.90;;;;;;5030921;28;20056;-69
2022/01/08 13:27:40;;;;;;;5.23;2.00;;;5.40;99.90;;;;;;5017359;28;20044;-70
2022/01/08 13:30:12;;;;;;;3.08;1.20;;;5.40;99.90;;;;;;5024064;28;20064;-73
2022/01/08 13:32:42;;;;;;;4.65;2.05;;;5.40;99.90;;;;;;5028683;28;20053;-69
2022/01/08 13:35:13;;;;;;;5.50;2.13;;;5.50;99.90;;;;;;5032355;28;20059;-68
2022/01/08 13:37:41;;;;;;;5.45;1.80;;;5.40;99.90;;;;;;5029929;28;20491;-68
2022/01/08 13:40:10;;;;;;;10.77;2.13;;;5.30;99.90;;;;;;5051322;28;20052;-69
2022/01/08 13:42:41;;;;;;;6.45;2.00;;;5.40;99.90;;;;;;5050088;28;20048;-68
2022/01/08 13:45:12;;;;;;;4.25;2.05;;;5.40;99.90;;;;;;5052122;28;20041;-69
2022/01/08 13:47:44;;;;;;;3.42;1.73;;;5.40;99.90;;;;;;5048569;28;20049;-68
2022/01/08 13:50:19;;;;;;;5.55;2.35;;;5.40;99.90;;;;;;5035641;28;20190;-71
2022/01/08 13:52:53;;;;;;;5.03;1.63;;;5.30;99.90;;;;;;5046030;28;20033;-70
2022/01/08 13:55:25;;;;;;;7.07;2.30;;;5.30;99.90;;;;;;5046999;28;20060;-70